createdAt,value
2023-03-27T00:02:26.399Z,3.50
2023-03-27T00:04:54.823Z,4.20
2023-03-27T00:07:22.813Z,4.03
2023-03-27T00:09:53.605Z,4.32
2023-03-27T00:12:22.026Z,3.95
2023-03-27T00:14:55.648Z,4.85
2023-03-27T00:17:25.232Z,4.45
2023-03-27T00:19:53.638Z,4.18
2023-03-27T00:22:21.002Z,4.03
2023-03-27T00:24:48.376Z,4.07
2023-03-27T00:27:18.487Z,4.18
2023-03-27T00:29:48.027Z,3.90
2023-03-27T00:32:15.471Z,4.45
2023-03-27T00:37:16.843Z,4.35
2023-03-27T00:39:44.111Z,4.30
2023-03-27T00:42:15.214Z,4.00
2023-03-27T00:44:42.697Z,3.65
2023-03-27T00:47:12.919Z,3.88
2023-03-27T00:49:40.235Z,3.65
2023-03-27T00:52:08.856Z,3.85
2023-03-27T00:54:39.091Z,5.15
2023-03-27T00:57:12.878Z,3.55
2023-03-27T01:02:19.958Z,3.28
2023-03-27T01:04:49.324Z,3.90
2023-03-27T01:07:26.337Z,3.30
2023-03-27T01:09:56.579Z,3.75
2023-03-27T01:12:39.332Z,3.53
2023-03-27T01:15:41.683Z,3.35
2023-03-27T01:18:42.324Z,4.15
2023-03-27T01:21:43.226Z,3.22
2023-03-27T01:25:04.548Z,3.45
2023-03-27T01:27:51.707Z,3.45
2023-03-27T01:30:46.687Z,3.30
2023-03-27T01:34:06.265Z,3.63
2023-03-27T01:36:48.446Z,3.05
2023-03-27T01:39:43.566Z,3.53
2023-03-27T01:42:49.535Z,4.30
2023-03-27T01:45:21.947Z,3.10
2023-03-27T01:48:07.466Z,4.43
2023-03-27T01:50:55.314Z,3.78
2023-03-27T01:53:58.044Z,3.50
2023-03-27T01:56:37.670Z,3.72
2023-03-27T01:59:16.593Z,3.60
2023-03-27T02:01:59.401Z,3.13
2023-03-27T02:04:41.015Z,3.58
2023-03-27T02:07:18.853Z,3.10
2023-03-27T02:09:55.531Z,3.00
2023-03-27T02:12:35.176Z,2.70
2023-03-27T02:15:35.413Z,3.05
2023-03-27T02:18:14.654Z,2.50
2023-03-27T02:20:42.283Z,1.80
2023-03-27T02:23:23.228Z,2.40
2023-03-27T02:25:54.552Z,2.05
2023-03-27T02:28:51.796Z,1.92
2023-03-27T02:31:53.026Z,2.40
2023-03-27T02:35:37.319Z,2.13
2023-03-27T02:38:28.933Z,2.20
2023-03-27T02:41:20.437Z,2.70
2023-03-27T02:43:56.593Z,2.00
2023-03-27T02:46:50.862Z,1.95
2023-03-27T02:49:32.895Z,2.40
2023-03-27T02:52:10.016Z,2.42
2023-03-27T02:54:49.609Z,2.03
2023-03-27T02:57:27.276Z,2.03
2023-03-27T03:00:00.849Z,1.50
2023-03-27T03:02:33.985Z,1.55
2023-03-27T03:05:15.085Z,1.45
2023-03-27T03:07:42.632Z,1.20
2023-03-27T03:10:11.887Z,1.20
2023-03-27T03:12:39.605Z,1.30
2023-03-27T03:15:08.699Z,1.40
2023-03-27T03:17:36.031Z,1.70
2023-03-27T03:20:05.483Z,1.55
2023-03-27T03:22:38.216Z,1.13
2023-03-27T03:25:13.883Z,1.02
2023-03-27T03:27:44.450Z,1.40
2023-03-27T03:30:16.543Z,1.02
2023-03-27T03:32:44.820Z,1.67
2023-03-27T03:35:13.873Z,1.50
2023-03-27T03:37:41.222Z,1.45
2023-03-27T03:40:12.121Z,1.38
2023-03-27T03:42:51.500Z,1.70
2023-03-27T03:45:19.952Z,1.67
2023-03-27T03:47:47.803Z,1.50
2023-03-27T03:50:15.445Z,2.00
2023-03-27T03:55:25.843Z,1.90
2023-03-27T03:57:53.026Z,1.80
2023-03-27T04:00:20.388Z,1.55
2023-03-27T04:02:52.292Z,1.65
2023-03-27T04:05:21.048Z,1.65
2023-03-27T04:07:49.934Z,2.00
2023-03-27T04:10:21.066Z,1.77
2023-03-27T04:12:49.607Z,1.90
2023-03-27T04:15:20.542Z,1.80
2023-03-27T04:17:48.760Z,1.52
2023-03-27T04:20:18.574Z,1.75
2023-03-27T04:22:48.866Z,1.52
2023-03-27T04:25:26.426Z,1.77
2023-03-27T04:27:53.660Z,1.20
2023-03-27T04:30:25.495Z,1.92
2023-03-27T04:32:54.721Z,1.60
2023-03-27T04:35:22.244Z,1.60
2023-03-27T04:37:57.308Z,1.85
2023-03-27T04:40:25.750Z,1.55
2023-03-27T04:42:56.090Z,1.75
2023-03-27T04:45:26.008Z,1.55
2023-03-27T04:47:54.736Z,1.38
2023-03-27T04:50:22.170Z,1.27
2023-03-27T04:52:50.551Z,1.27
2023-03-27T04:55:26.160Z,1.27
2023-03-27T04:57:57.668Z,0.82
2023-03-27T05:00:25.867Z,1.00
2023-03-27T05:02:56.318Z,0.98
2023-03-27T05:05:25.244Z,1.00
2023-03-27T05:07:55.171Z,0.65
2023-03-27T05:10:22.657Z,1.13
2023-03-27T05:15:22.111Z,1.40
2023-03-27T05:17:57.703Z,0.60
2023-03-27T05:20:25.660Z,1.85
2023-03-27T05:23:02.469Z,1.08
2023-03-27T05:25:31.344Z,0.73
2023-03-27T05:30:43.216Z,0.70
2023-03-27T05:33:14.130Z,0.75
2023-03-27T05:35:48.449Z,1.02
2023-03-27T05:38:17.210Z,1.60
2023-03-27T05:40:44.660Z,0.98
2023-03-27T05:43:11.985Z,2.42
2023-03-27T05:45:43.534Z,1.03
2023-03-27T05:48:13.592Z,0.50
2023-03-27T05:50:41.855Z,1.23
2023-03-27T05:53:11.217Z,1.27
2023-03-27T05:55:50.623Z,1.20
2023-03-27T05:58:30.744Z,0.63
2023-03-27T06:03:25.913Z,0.85
2023-03-27T06:05:53.328Z,0.85
2023-03-27T06:08:23.585Z,1.10
2023-03-27T06:10:54.845Z,1.17
2023-03-27T06:13:22.115Z,0.80
2023-03-27T06:15:51.841Z,0.82
2023-03-27T06:18:21.362Z,1.02
2023-03-27T06:20:48.597Z,0.70
2023-03-27T06:23:18.546Z,0.68
2023-03-27T06:25:47.599Z,1.10
2023-03-27T06:28:15.003Z,1.35
2023-03-27T06:30:42.509Z,0.30
2023-03-27T06:35:38.142Z,0.75
2023-03-27T06:38:17.026Z,0.70
2023-03-27T06:40:45.168Z,0.68
2023-03-27T06:43:14.277Z,0.60
2023-03-27T06:45:49.302Z,0.50
2023-03-27T06:48:21.306Z,0.77
2023-03-27T06:50:52.157Z,0.70
2023-03-27T06:55:51.072Z,0.80
2023-03-27T06:58:19.381Z,0.80
2023-03-27T07:00:49.742Z,0.50
2023-03-27T07:03:19.381Z,1.35
2023-03-27T07:05:46.783Z,1.13
2023-03-27T07:10:56.363Z,6.55
2023-03-27T07:13:36.273Z,2.10
2023-03-27T07:16:04.633Z,4.18
2023-03-27T07:18:32.148Z,2.20
2023-03-27T07:23:27.090Z,1.30
2023-03-27T07:26:01.911Z,1.27
2023-03-27T07:28:29.320Z,0.47
2023-03-27T07:33:24.436Z,0.68
2023-03-27T07:35:51.981Z,0.30
2023-03-27T07:38:19.145Z,0.30
2023-03-27T07:40:46.684Z,0.30
2023-03-27T07:43:17.630Z,0.50
2023-03-27T07:46:05.099Z,2.50
2023-03-27T07:48:36.328Z,2.63
2023-03-27T07:51:13.764Z,3.92
2023-03-27T07:53:41.875Z,3.90
2023-03-27T07:58:37.206Z,3.55
2023-03-27T08:01:04.928Z,1.08
2023-03-27T08:03:32.463Z,0.60
2023-03-27T08:06:01.357Z,1.63
2023-03-27T08:08:29.715Z,2.33
2023-03-27T08:11:27.416Z,1.85
2023-03-27T08:13:57.314Z,3.90
2023-03-27T08:18:55.884Z,5.82
2023-03-27T08:21:24.009Z,8.48
2023-03-27T08:23:51.347Z,4.28
2023-03-27T08:26:18.843Z,1.42
2023-03-27T08:28:59.060Z,1.20
2023-03-27T08:31:29.375Z,1.83
2023-03-27T08:33:56.741Z,3.88
2023-03-27T08:36:24.719Z,1.83
2023-03-27T08:38:55.390Z,2.40
2023-03-27T08:41:46.999Z,3.47
2023-03-27T08:44:18.945Z,4.93
2023-03-27T08:47:13.618Z,4.38
2023-03-27T08:49:53.649Z,1.23
2023-03-27T08:55:25.592Z,1.88
2023-03-27T08:57:53.418Z,0.60
2023-03-27T09:00:32.131Z,0.28
2023-03-27T09:03:11.366Z,0.57
2023-03-27T09:06:02.248Z,0.28
2023-03-27T09:08:55.598Z,0.20
2023-03-27T09:11:44.870Z,0.40
2023-03-27T09:14:31.746Z,0.30
2023-03-27T09:17:11.496Z,0.52
2023-03-27T09:20:06.252Z,0.20
2023-03-27T09:22:48.582Z,0.30
2023-03-27T09:25:25.044Z,0.40
2023-03-27T09:27:53.701Z,0.80
2023-03-27T09:30:35.004Z,0.35
2023-03-27T09:33:07.100Z,0.50
2023-03-27T09:35:41.311Z,1.20
2023-03-27T09:38:35.239Z,1.00
2023-03-27T09:41:24.296Z,0.30
2023-03-27T09:44:09.175Z,0.30
2023-03-27T09:46:44.463Z,0.60
2023-03-27T09:49:29.858Z,0.85
2023-03-27T09:52:00.289Z,0.82
2023-03-27T09:54:32.253Z,0.47
2023-03-27T09:57:29.854Z,0.35
2023-03-27T10:00:28.750Z,0.50
2023-03-27T10:03:04.027Z,0.20
2023-03-27T10:05:35.418Z,0.50
2023-03-27T10:08:32.881Z,0.50
2023-03-27T10:11:00.209Z,0.70
2023-03-27T10:19:52.377Z,0.90
2023-03-27T10:22:29.629Z,0.47
2023-03-27T10:25:01.680Z,0.90
2023-03-27T10:27:37.300Z,0.60
2023-03-27T10:30:35.353Z,0.73
2023-03-27T10:33:03.474Z,0.50
2023-03-27T10:35:38.125Z,1.02
2023-03-27T10:38:18.460Z,0.68
2023-03-27T10:40:51.844Z,0.40
2023-03-27T10:43:43.958Z,1.02
2023-03-27T10:46:24.130Z,0.82
2023-03-27T10:49:22.479Z,3.35
2023-03-27T10:52:31.224Z,1.00
2023-03-27T10:55:01.497Z,5.75
2023-03-27T10:57:37.800Z,6.07
2023-03-27T11:00:39.066Z,0.80
2023-03-27T11:03:43.973Z,0.57
2023-03-27T11:06:19.501Z,0.55
2023-03-27T11:09:05.895Z,0.65
2023-03-27T11:11:45.355Z,0.60
2023-03-27T11:14:24.561Z,0.60
2023-03-27T11:17:16.196Z,0.88
2023-03-27T11:20:00.467Z,0.88
2023-03-27T11:22:42.277Z,1.55
2023-03-27T11:25:29.975Z,0.63
2023-03-27T11:28:36.621Z,1.08
2023-03-27T11:31:38.233Z,1.02
2023-03-27T11:34:36.638Z,1.00
2023-03-27T11:37:32.177Z,0.80
2023-03-27T11:40:09.683Z,0.20
2023-03-27T11:42:44.059Z,0.50
2023-03-27T11:45:23.137Z,1.38
2023-03-27T11:48:56.977Z,1.13
2023-03-27T11:51:42.610Z,0.80
2023-03-27T11:54:40.843Z,0.60
2023-03-27T11:57:26.007Z,2.00
2023-03-27T12:00:07.067Z,0.90
2023-03-27T12:03:06.289Z,0.63
2023-03-27T12:06:14.286Z,0.60
2023-03-27T12:09:03.967Z,0.85
2023-03-27T12:11:31.943Z,0.63
2023-03-27T12:18:05.622Z,0.90
2023-03-27T12:20:54.829Z,0.80
2023-03-27T12:23:54.224Z,1.58
2023-03-27T12:26:45.967Z,0.82
2023-03-27T12:30:07.035Z,0.50
2023-03-27T12:32:55.350Z,0.60
2023-03-27T12:35:32.197Z,1.05
2023-03-27T12:38:05.772Z,1.20
2023-03-27T12:43:31.997Z,0.93
2023-03-27T12:46:18.929Z,1.80
2023-03-27T12:49:20.386Z,0.88
2023-03-27T12:52:05.046Z,1.25
2023-03-27T12:54:42.640Z,1.60
2023-03-27T12:57:25.126Z,1.08
2023-03-27T13:00:18.654Z,1.42
2023-03-27T13:03:18.585Z,0.90
2023-03-27T13:06:17.611Z,0.65
2023-03-27T13:09:17.014Z,1.00
2023-03-27T13:12:25.386Z,1.20
2023-03-27T13:15:18.578Z,0.95
2023-03-27T13:18:23.806Z,1.23
2023-03-27T13:21:47.524Z,1.60
2023-03-27T13:25:00.123Z,1.88
2023-03-27T13:28:10.274Z,1.67
2023-03-27T13:30:54.525Z,1.05
2023-03-27T13:33:42.433Z,0.57
2023-03-27T13:36:36.629Z,1.15
2023-03-27T13:39:06.093Z,0.93
2023-03-27T13:41:45.379Z,1.50
2023-03-27T13:44:30.503Z,1.45
2023-03-27T13:47:54.748Z,1.23
2023-03-27T13:50:49.289Z,1.40
2023-03-27T13:53:53.497Z,1.30
2023-03-27T13:56:58.291Z,1.42
2023-03-27T13:59:52.642Z,1.40
2023-03-27T14:02:48.526Z,1.10
2023-03-27T14:05:37.471Z,1.05
2023-03-27T14:08:51.644Z,1.10
2023-03-27T14:11:23.845Z,0.93
2023-03-27T14:14:18.829Z,1.23
2023-03-27T14:17:06.718Z,0.70
2023-03-27T14:20:08.292Z,0.50
2023-03-27T14:23:06.013Z,0.75
2023-03-27T14:25:39.962Z,0.88
2023-03-27T14:30:52.328Z,0.63
2023-03-27T14:33:21.994Z,2.25
2023-03-27T14:36:02.482Z,2.20
2023-03-27T14:38:47.925Z,2.35
2023-03-27T14:41:22.079Z,4.18
2023-03-27T14:43:52.340Z,6.78
2023-03-27T14:46:27.084Z,4.93
2023-03-27T14:49:00.042Z,0.60
2023-03-27T14:51:48.479Z,1.10
2023-03-27T14:54:36.788Z,1.23
2023-03-27T14:57:14.516Z,1.05
2023-03-27T15:00:09.355Z,1.75
2023-03-27T15:02:44.631Z,1.50
2023-03-27T15:06:14.375Z,1.25
2023-03-27T15:08:48.411Z,1.08
2023-03-27T15:11:21.817Z,1.15
2023-03-27T15:13:52.345Z,1.00
2023-03-27T15:16:34.712Z,1.17
2023-03-27T15:19:19.948Z,0.82
2023-03-27T15:22:15.099Z,0.98
2023-03-27T15:25:19.893Z,0.90
2023-03-27T15:29:01.669Z,0.75
2023-03-27T15:31:37.171Z,0.80
2023-03-27T15:34:37.592Z,1.20
2023-03-27T15:37:33.822Z,1.25
2023-03-27T15:43:34.276Z,1.73
2023-03-27T15:46:26.866Z,1.85
2023-03-27T15:54:32.520Z,0.98
2023-03-27T15:57:15.913Z,0.70
2023-03-27T16:00:14.807Z,0.85
2023-03-27T16:02:43.740Z,0.50
2023-03-27T16:05:18.319Z,0.60
2023-03-27T16:07:50.268Z,0.55
2023-03-27T16:10:49.688Z,0.35
2023-03-27T16:14:08.995Z,0.85
2023-03-27T16:17:47.468Z,0.50
2023-03-27T16:23:40.607Z,1.48
2023-03-27T16:26:42.949Z,1.10
2023-03-27T16:36:44.127Z,1.88
2023-03-27T16:39:11.620Z,1.02
2023-03-27T16:41:42.413Z,1.17
2023-03-27T16:44:09.694Z,1.17
2023-03-27T16:49:36.262Z,1.20
2023-03-27T16:52:22.527Z,1.20
2023-03-27T16:54:57.534Z,1.33
2023-03-27T16:57:25.792Z,0.70
2023-03-27T16:59:57.756Z,2.28
2023-03-27T17:02:29.005Z,1.20
2023-03-27T17:05:55.579Z,1.52
2023-03-27T17:09:02.620Z,1.00
2023-03-27T17:11:51.290Z,1.30
2023-03-27T17:14:46.408Z,3.30
2023-03-27T17:20:48.169Z,2.53
2023-03-27T17:24:25.869Z,2.63
2023-03-27T17:27:40.490Z,1.10
2023-03-27T17:30:11.421Z,1.50
2023-03-27T17:38:39.252Z,2.38
2023-03-27T17:40:10.017Z,2.00
2023-03-27T17:45:06.537Z,19.10
2023-03-27T17:53:15.755Z,10.50
2023-03-27T17:56:16.856Z,17.98
2023-03-27T17:59:23.307Z,5.18
2023-03-27T18:02:30.808Z,3.42
2023-03-27T18:05:38.373Z,2.28
2023-03-27T18:08:30.252Z,2.53
2023-03-27T18:11:41.027Z,3.70
2023-03-27T18:15:45.125Z,4.50
2023-03-27T18:23:38.034Z,4.45
2023-03-27T18:26:26.095Z,4.70
2023-03-27T18:29:40.365Z,7.15
2023-03-27T18:32:28.217Z,6.10
2023-03-27T18:35:24.733Z,4.22
2023-03-27T18:46:14.090Z,4.80
2023-03-27T18:49:10.215Z,4.80
2023-03-27T18:53:04.885Z,4.80
2023-03-27T19:04:50.552Z,3.67
2023-03-27T19:07:45.487Z,4.20
2023-03-27T19:12:05.947Z,4.32
2023-03-27T19:14:39.173Z,3.10
2023-03-27T19:17:29.218Z,4.18
2023-03-27T19:21:02.549Z,3.13
2023-03-27T19:24:03.438Z,3.15
2023-03-27T19:27:44.906Z,4.00
2023-03-27T19:35:16.477Z,3.90
2023-03-27T19:45:28.038Z,5.22
2023-03-27T20:03:52.563Z,2.80
2023-03-27T20:06:22.275Z,2.85
2023-03-27T20:14:21.885Z,1.70
2023-03-27T20:28:03.714Z,2.03
2023-03-27T20:30:57.554Z,2.05
2023-03-27T20:36:39.730Z,2.70
2023-03-27T20:42:15.302Z,1.90
2023-03-27T20:45:26.886Z,1.45
2023-03-27T20:52:07.314Z,1.30
2023-03-27T21:01:44.261Z,1.38
2023-03-27T21:04:26.758Z,1.03
2023-03-27T21:07:49.197Z,1.48
2023-03-27T21:14:41.987Z,1.50
2023-03-27T21:17:59.666Z,1.42
2023-03-27T21:29:38.026Z,1.50
2023-03-27T23:14:42.219Z,1.00
2023-03-27T23:17:52.001Z,1.02
2023-03-27T23:20:48.333Z,1.23
2023-03-27T23:23:42.559Z,0.60
2023-03-27T23:26:46.516Z,0.90
2023-03-27T23:29:42.459Z,0.70
2023-03-27T23:33:01.460Z,0.95
2023-03-27T23:39:42.037Z,0.60
2023-03-27T23:42:21.607Z,0.60
2023-03-27T23:44:51.654Z,0.73
2023-03-27T23:47:26.142Z,0.75
2023-03-27T23:50:26.171Z,0.77
